createdAt,value
2023-08-12T00:00:37.332Z,99102.22
2023-08-12T00:03:05.450Z,99103.84
2023-08-12T00:05:33.432Z,99107.69
2023-08-12T00:08:00.908Z,99099.84
2023-08-12T00:10:28.448Z,99104.84
2023-08-12T00:12:55.703Z,99099.69
2023-08-12T00:15:23.293Z,99101.69
2023-08-12T00:17:50.900Z,99094.44
2023-08-12T00:20:18.524Z,99097.03
2023-08-12T00:22:45.871Z,99091.81
2023-08-12T00:25:13.508Z,99084.81
2023-08-12T00:27:41.240Z,99080.47
2023-08-12T00:30:10.060Z,99073.38
2023-08-12T00:32:37.323Z,99075.47
2023-08-12T00:35:05.203Z,99071.84
2023-08-12T00:37:34.196Z,99069.09
2023-08-12T00:40:02.840Z,99071.13
2023-08-12T00:42:30.189Z,99066.25
2023-08-12T00:44:58.581Z,99069.28
2023-08-12T00:47:26.764Z,99064.78
2023-08-12T00:49:54.543Z,99066.97
2023-08-12T00:52:21.847Z,99060.78
2023-08-12T00:54:49.790Z,99063.63
2023-08-12T00:57:17.592Z,99064.81
2023-08-12T00:59:51.450Z,99056.78
2023-08-12T01:02:19.048Z,99061.63
2023-08-12T01:04:47.019Z,99054.59
2023-08-12T01:07:15.797Z,99055.31
2023-08-12T01:09:43.303Z,99058.38
2023-08-12T01:12:29.351Z,99047.72
2023-08-12T01:15:22.892Z,99053.13
2023-08-12T01:17:53.942Z,99047.16
2023-08-12T01:20:27.358Z,99041.34
2023-08-12T01:23:10.290Z,99038.88
2023-08-12T01:25:38.431Z,99041.13
2023-08-12T01:28:07.358Z,99037.16
2023-08-12T01:31:01.201Z,99033.94
2023-08-12T01:33:50.678Z,99029.38
2023-08-12T01:36:22.693Z,99027.28
2023-08-12T01:38:54.182Z,99036.25
2023-08-12T01:41:25.563Z,99035.91
2023-08-12T01:43:53.943Z,99037.22
2023-08-12T01:46:23.239Z,99030.06
2023-08-12T01:48:51.043Z,99022.44
2023-08-12T01:51:19.004Z,99017.03
2023-08-12T01:53:46.444Z,99016.38
2023-08-12T01:58:41.435Z,99014.56
2023-08-12T02:01:09.254Z,99021.88
2023-08-12T02:03:36.708Z,99022.28
2023-08-12T02:06:04.526Z,99019.88
2023-08-12T02:08:32.162Z,99019.69
2023-08-12T02:10:59.538Z,99023.25
2023-08-12T02:13:26.737Z,99023.38
2023-08-12T02:15:54.412Z,99022.94
2023-08-12T02:18:23.903Z,99023.53
2023-08-12T02:20:51.123Z,99020.41
2023-08-12T02:23:18.483Z,99021.47
2023-08-12T02:25:46.070Z,99018.03
2023-08-12T02:28:13.487Z,99017.53
2023-08-12T02:30:44.315Z,99022.97
2023-08-12T02:33:11.592Z,99026.94
2023-08-12T02:35:39.697Z,99013.25
2023-08-12T02:38:07.219Z,99017.59
2023-08-12T02:40:34.869Z,99017.38
2023-08-12T02:43:02.472Z,99012.94
2023-08-12T02:45:29.867Z,99004.63
2023-08-12T02:47:57.369Z,99013.25
2023-08-12T02:50:24.812Z,99004.00
2023-08-12T02:52:52.124Z,99000.31
2023-08-12T02:55:19.975Z,99001.84
2023-08-12T02:57:47.370Z,99000.38
2023-08-12T03:00:15.676Z,98997.59
2023-08-12T03:02:46.389Z,98999.78
2023-08-12T03:05:14.342Z,98995.75
2023-08-12T03:07:41.844Z,98997.72
2023-08-12T03:10:09.708Z,98996.34
2023-08-12T03:12:36.871Z,98996.19
2023-08-12T03:15:08.570Z,98992.09
2023-08-12T03:17:36.198Z,98995.72
2023-08-12T03:20:06.700Z,98986.34
2023-08-12T03:22:34.039Z,98994.25
2023-08-12T03:25:01.740Z,98984.38
2023-08-12T03:27:29.959Z,98987.03
2023-08-12T03:29:57.581Z,98991.00
2023-08-12T03:32:26.678Z,98992.25
2023-08-12T03:34:54.153Z,98986.75
2023-08-12T03:37:21.932Z,98978.75
2023-08-12T03:39:53.601Z,98975.59
2023-08-12T03:42:21.781Z,98970.06
2023-08-12T03:44:50.494Z,98982.75
2023-08-12T03:47:23.025Z,98976.88
2023-08-12T03:49:50.623Z,98977.41
2023-08-12T03:52:17.891Z,98976.91
2023-08-12T03:54:45.982Z,98976.34
2023-08-12T03:57:13.693Z,98979.06
2023-08-12T03:59:41.223Z,98974.56
2023-08-12T04:02:08.760Z,98972.88
2023-08-12T04:04:37.368Z,98977.38
2023-08-12T04:07:05.062Z,98981.19
2023-08-12T04:09:33.507Z,98981.06
2023-08-12T04:12:00.752Z,98983.91
2023-08-12T04:14:32.266Z,98976.06
2023-08-12T04:16:59.882Z,98976.53
2023-08-12T04:19:27.199Z,98982.50
2023-08-12T04:21:54.390Z,98986.50
2023-08-12T04:24:21.683Z,98980.19
2023-08-12T04:26:49.269Z,98979.59
2023-08-12T04:29:18.005Z,98978.59
2023-08-12T04:31:45.341Z,98971.94
2023-08-12T04:34:12.871Z,98981.81
2023-08-12T04:36:43.222Z,98972.63
2023-08-12T04:39:12.603Z,98987.00
2023-08-12T04:41:40.144Z,98986.81
2023-08-12T04:44:08.447Z,98986.84
2023-08-12T04:46:37.079Z,98988.34
2023-08-12T04:49:06.043Z,98988.44
2023-08-12T04:51:34.989Z,99008.13
2023-08-12T04:54:03.822Z,99004.59
2023-08-12T04:56:32.966Z,99004.38
2023-08-12T04:59:01.531Z,99004.88
2023-08-12T05:01:29.193Z,98999.88
2023-08-12T05:03:56.531Z,98991.94
2023-08-12T05:06:24.214Z,98985.25
2023-08-12T05:08:52.952Z,98988.53
2023-08-12T05:11:20.317Z,98979.50
2023-08-12T05:13:47.987Z,98990.28
2023-08-12T05:16:15.857Z,98995.41
2023-08-12T05:18:43.949Z,98984.59
2023-08-12T05:21:12.591Z,99004.06
2023-08-12T05:23:39.951Z,99011.00
2023-08-12T05:26:07.449Z,98998.69
2023-08-12T05:28:34.998Z,99001.16
2023-08-12T05:31:02.198Z,99007.53
2023-08-12T05:33:29.573Z,98998.44
2023-08-12T05:35:56.926Z,98998.28
2023-08-12T05:38:25.110Z,98995.84
2023-08-12T05:40:52.389Z,98988.50
2023-08-12T05:43:19.977Z,98996.19
2023-08-12T05:45:47.348Z,98990.72
2023-08-12T05:48:14.794Z,98987.25
2023-08-12T05:50:42.232Z,99007.72
2023-08-12T05:53:09.437Z,99012.50
2023-08-12T05:55:37.070Z,99014.22
2023-08-12T05:58:05.843Z,99009.38
2023-08-12T06:00:33.548Z,99004.97
2023-08-12T06:03:01.253Z,98995.78
2023-08-12T06:05:28.841Z,99003.25
2023-08-12T06:07:56.533Z,99001.06
2023-08-12T06:10:23.946Z,99002.38
2023-08-12T06:12:51.138Z,98998.16
2023-08-12T06:15:18.381Z,99011.69
2023-08-12T06:17:45.599Z,99011.00
2023-08-12T06:20:14.058Z,99010.06
2023-08-12T06:22:41.818Z,98996.22
2023-08-12T06:25:09.677Z,98987.38
2023-08-12T06:27:37.481Z,98966.84
2023-08-12T06:30:07.139Z,98962.31
2023-08-12T06:32:36.678Z,98968.50
2023-08-12T06:35:04.782Z,98978.81
2023-08-12T06:37:32.685Z,98997.84
2023-08-12T06:40:00.448Z,98993.41
2023-08-12T06:42:27.896Z,98999.72
2023-08-12T06:45:00.116Z,98991.72
2023-08-12T06:47:28.783Z,98985.81
2023-08-12T06:49:56.768Z,98985.19
2023-08-12T06:52:24.145Z,98978.63
2023-08-12T06:54:52.135Z,98983.22
2023-08-12T06:57:19.553Z,98981.88
2023-08-12T06:59:53.159Z,98981.91
2023-08-12T07:02:21.166Z,98992.03
2023-08-12T07:04:49.052Z,98987.59
2023-08-12T07:07:16.737Z,98993.59
2023-08-12T07:09:43.961Z,98982.66
2023-08-12T07:12:11.440Z,98990.00
2023-08-12T07:14:39.075Z,98989.22
2023-08-12T07:17:06.385Z,98992.25
2023-08-12T07:19:33.618Z,98996.19
2023-08-12T07:22:01.088Z,98996.38
2023-08-12T07:24:28.479Z,99003.50
2023-08-12T07:26:56.619Z,99004.38
2023-08-12T07:29:24.050Z,98996.13
2023-08-12T07:31:53.588Z,98989.06
2023-08-12T07:34:20.809Z,98992.75
2023-08-12T07:36:48.279Z,99001.06
2023-08-12T07:39:16.027Z,98994.53
2023-08-12T07:41:43.576Z,99000.34
2023-08-12T07:44:11.080Z,98995.84
2023-08-12T07:46:38.533Z,98987.97
2023-08-12T07:49:06.134Z,98983.97
2023-08-12T07:51:33.486Z,98984.56
2023-08-12T07:54:00.735Z,98983.84
2023-08-12T07:56:28.329Z,98980.69
2023-08-12T07:58:55.850Z,98979.38
2023-08-12T08:01:23.463Z,98978.19
2023-08-12T08:03:50.997Z,98975.91
2023-08-12T08:06:19.004Z,98972.78
2023-08-12T08:08:46.478Z,98980.97
2023-08-12T08:11:13.690Z,98983.88
2023-08-12T08:13:41.007Z,98991.56
2023-08-12T08:16:08.371Z,98982.75
2023-08-12T08:18:35.747Z,98981.69
2023-08-12T08:21:05.894Z,98979.56
2023-08-12T08:23:33.802Z,98975.81
2023-08-12T08:26:02.180Z,98989.84
2023-08-12T08:28:29.513Z,98974.59
2023-08-12T08:30:56.913Z,98967.00
2023-08-12T08:33:24.129Z,98951.69
2023-08-12T08:35:51.308Z,98953.91
2023-08-12T08:38:21.828Z,98948.41
2023-08-12T08:40:51.898Z,98959.56
2023-08-12T08:43:23.968Z,98955.91
2023-08-12T08:45:55.365Z,98957.91
2023-08-12T08:48:23.347Z,98953.19
2023-08-12T08:50:52.988Z,98962.63
2023-08-12T08:53:21.470Z,98962.03
2023-08-12T08:55:49.728Z,98968.78
2023-08-12T08:58:22.288Z,98978.13
2023-08-12T09:00:50.936Z,98975.03
2023-08-12T09:03:18.767Z,98965.91
2023-08-12T09:05:46.968Z,98959.91
2023-08-12T09:08:15.787Z,98961.56
2023-08-12T09:10:43.288Z,98958.78
2023-08-12T09:13:10.565Z,98961.66
2023-08-12T09:15:37.931Z,98962.22
2023-08-12T09:18:07.611Z,98961.25
2023-08-12T09:20:35.790Z,98958.47
2023-08-12T09:23:03.936Z,98962.34
2023-08-12T09:25:32.241Z,98958.38
2023-08-12T09:28:00.914Z,98964.00
2023-08-12T09:30:34.836Z,98943.09
2023-08-12T09:33:08.268Z,98949.75
2023-08-12T09:35:42.326Z,98953.84
2023-08-12T09:38:14.840Z,98952.94
2023-08-12T09:40:49.038Z,98948.50
2023-08-12T09:43:17.758Z,98952.22
2023-08-12T09:45:46.979Z,98951.00
2023-08-12T09:48:15.776Z,98944.13
2023-08-12T09:50:45.223Z,98926.13
2023-08-12T09:53:13.206Z,98931.50
2023-08-12T09:55:44.697Z,98920.47
2023-08-12T09:58:15.087Z,98915.44
2023-08-12T10:00:43.222Z,98904.63
2023-08-12T10:03:15.452Z,98893.91
2023-08-12T10:05:44.812Z,98894.38
2023-08-12T10:08:15.175Z,98890.59
2023-08-12T10:10:44.943Z,98891.81
2023-08-12T10:13:14.004Z,98886.09
2023-08-12T10:15:42.071Z,98866.00
2023-08-12T10:18:12.257Z,98860.13
2023-08-12T10:20:41.640Z,98859.19
2023-08-12T10:23:17.869Z,98864.78
2023-08-12T10:25:46.815Z,98887.34
2023-08-12T10:28:14.560Z,98888.88
2023-08-12T10:30:43.192Z,98885.56
2023-08-12T10:33:11.988Z,98880.97
2023-08-12T10:35:50.750Z,98878.94
2023-08-12T10:38:23.574Z,98866.47
2023-08-12T10:40:52.089Z,98860.28
2023-08-12T10:43:19.842Z,98868.94
2023-08-12T10:45:54.360Z,98872.38
2023-08-12T10:48:29.022Z,98870.78
2023-08-12T10:51:00.791Z,98875.00
2023-08-12T10:53:34.364Z,98883.50
2023-08-12T10:56:06.394Z,98876.88
2023-08-12T10:58:45.253Z,98884.50
2023-08-12T11:01:19.129Z,98893.69
2023-08-12T11:03:49.745Z,98893.41
2023-08-12T11:06:18.047Z,98884.81
2023-08-12T11:08:54.217Z,98880.53
2023-08-12T11:11:27.728Z,98862.69
2023-08-12T11:13:58.671Z,98876.00
2023-08-12T11:16:44.508Z,98877.75
2023-08-12T11:19:14.901Z,98873.78
2023-08-12T11:21:44.474Z,98863.84
2023-08-12T11:24:12.667Z,98862.81
2023-08-12T11:26:41.957Z,98867.09
2023-08-12T11:29:13.605Z,98863.50
2023-08-12T11:31:43.958Z,98854.78
2023-08-12T11:34:12.774Z,98853.69
2023-08-12T11:36:40.585Z,98847.59
2023-08-12T11:39:09.145Z,98848.09
2023-08-12T11:41:36.547Z,98826.91
2023-08-12T11:44:05.791Z,98827.63
2023-08-12T11:46:36.448Z,98821.19
2023-08-12T11:49:04.291Z,98824.50
2023-08-12T11:51:31.974Z,98809.66
2023-08-12T11:53:59.552Z,98805.19
2023-08-12T11:56:27.349Z,98808.47
2023-08-12T11:58:55.349Z,98812.78
2023-08-12T12:01:24.775Z,98823.22
2023-08-12T12:03:57.332Z,98836.28
2023-08-12T12:06:42.533Z,98839.50
2023-08-12T12:09:11.237Z,98852.88
2023-08-12T12:11:39.740Z,98864.28
2023-08-12T12:14:11.050Z,98844.34
2023-08-12T12:16:47.722Z,98849.56
2023-08-12T12:19:25.033Z,98853.31
2023-08-12T12:21:55.016Z,98853.78
2023-08-12T12:24:22.724Z,98866.63
2023-08-12T12:26:51.403Z,98879.47
2023-08-12T12:29:18.865Z,98894.94
2023-08-12T12:31:46.177Z,98904.75
2023-08-12T12:34:15.262Z,98891.94
2023-08-12T12:36:43.170Z,98894.28
2023-08-12T12:39:11.013Z,98921.72
2023-08-12T12:41:38.706Z,98936.47
2023-08-12T12:44:06.675Z,98936.66
2023-08-12T12:46:34.324Z,98947.06
2023-08-12T12:49:01.917Z,98945.53
2023-08-12T12:51:29.602Z,98960.13
2023-08-12T12:53:57.058Z,98992.78
2023-08-12T12:56:24.895Z,99003.63
2023-08-12T12:58:52.357Z,99013.91
2023-08-12T13:01:19.616Z,99002.50
2023-08-12T13:03:47.134Z,99024.88
2023-08-12T13:06:14.968Z,99060.97
2023-08-12T13:08:42.463Z,99074.56
2023-08-12T13:11:09.961Z,99069.78
2023-08-12T13:13:37.251Z,99059.94
2023-08-12T13:16:05.135Z,99055.94
2023-08-12T13:18:32.527Z,99052.75
2023-08-12T13:21:00.084Z,99049.91
2023-08-12T13:23:28.071Z,99039.63
2023-08-12T13:25:55.766Z,99025.91
2023-08-12T13:28:23.077Z,99021.38
2023-08-12T13:30:50.886Z,99023.31
2023-08-12T13:33:18.421Z,99018.19
2023-08-12T13:35:46.022Z,99010.09
2023-08-12T13:38:14.094Z,99013.28
2023-08-12T13:40:48.120Z,99015.34
2023-08-12T13:43:15.826Z,99007.41
2023-08-12T13:45:43.394Z,99005.28
2023-08-12T13:48:11.003Z,99005.75
2023-08-12T13:50:38.354Z,98999.00
2023-08-12T13:53:05.622Z,98982.16
2023-08-12T13:55:33.045Z,98983.66
2023-08-12T13:58:00.368Z,98977.44
2023-08-12T14:00:27.699Z,98964.94
2023-08-12T14:02:55.060Z,98965.09
2023-08-12T14:05:22.540Z,98963.69
2023-08-12T14:07:50.116Z,98955.16
2023-08-12T14:10:17.588Z,98940.63
2023-08-12T14:12:46.018Z,98940.53
2023-08-12T14:15:13.456Z,98929.44
2023-08-12T14:17:40.813Z,98915.09
2023-08-12T14:20:09.289Z,98897.19
2023-08-12T14:22:37.076Z,98904.16
2023-08-12T14:25:06.303Z,98900.88
2023-08-12T14:27:34.222Z,98883.50
2023-08-12T14:30:01.885Z,98887.78
2023-08-12T14:32:29.359Z,98888.06
2023-08-12T14:34:56.603Z,98888.72
2023-08-12T14:37:23.968Z,98892.50
2023-08-12T14:39:51.886Z,98893.03
2023-08-12T14:42:19.237Z,98891.75
2023-08-12T14:44:47.116Z,98896.50
2023-08-12T14:47:15.182Z,98891.06
2023-08-12T14:49:43.108Z,98902.44
2023-08-12T14:52:21.806Z,98871.94
2023-08-12T14:54:49.800Z,98865.63
2023-08-12T14:57:17.212Z,98868.56
2023-08-12T14:59:44.712Z,98869.97
2023-08-12T15:02:11.893Z,98864.81
2023-08-12T15:04:40.581Z,98879.03
2023-08-12T15:07:07.919Z,98887.31
2023-08-12T15:09:35.195Z,98906.56
2023-08-12T15:12:02.526Z,98899.59
2023-08-12T15:14:31.737Z,98891.34
2023-08-12T15:17:01.064Z,98888.25
2023-08-12T15:19:28.514Z,98860.09
2023-08-12T15:21:56.226Z,98862.53
2023-08-12T15:24:23.771Z,98872.25
2023-08-12T15:26:51.486Z,98875.81
2023-08-12T15:29:18.872Z,98887.41
2023-08-12T15:31:46.737Z,98886.34
2023-08-12T15:34:14.276Z,98883.53
2023-08-12T15:36:43.247Z,98886.19
2023-08-12T15:39:13.548Z,98873.72
2023-08-12T15:41:45.311Z,98867.38
2023-08-12T15:44:14.728Z,98881.72
2023-08-12T15:46:43.170Z,98896.38
2023-08-12T15:49:12.366Z,98879.38
2023-08-12T15:51:41.705Z,98868.28
2023-08-12T15:54:09.550Z,98876.63
2023-08-12T15:56:38.476Z,98870.56
2023-08-12T15:59:07.828Z,98868.91
2023-08-12T16:01:36.391Z,98867.06
2023-08-12T16:04:04.567Z,98874.66
2023-08-12T16:06:32.506Z,98869.25
2023-08-12T16:11:30.245Z,98867.47
2023-08-12T16:13:57.456Z,98884.75
2023-08-12T16:16:24.755Z,98884.78
2023-08-12T16:18:51.996Z,98883.31
2023-08-12T16:21:19.181Z,98888.88
2023-08-12T16:23:46.436Z,98895.38
2023-08-12T16:26:14.664Z,98909.06
2023-08-12T16:28:42.052Z,98922.53
2023-08-12T16:31:09.561Z,98926.56
2023-08-12T16:33:36.877Z,98939.88
2023-08-12T16:36:05.269Z,98953.53
2023-08-12T16:38:33.628Z,98954.34
2023-08-12T16:41:01.214Z,98945.59
2023-08-12T16:43:28.992Z,98950.72
2023-08-12T16:45:56.619Z,98961.81
2023-08-12T16:48:24.258Z,98960.50
2023-08-12T16:50:51.781Z,98964.91
2023-08-12T16:53:19.023Z,98973.22
2023-08-12T16:55:46.772Z,98977.00
2023-08-12T16:58:14.328Z,98979.28
2023-08-12T17:00:41.979Z,98978.59
2023-08-12T17:03:09.504Z,98973.22
2023-08-12T17:05:37.316Z,98975.09
2023-08-12T17:08:05.295Z,98978.91
2023-08-12T17:10:33.908Z,98972.03
2023-08-12T17:13:01.240Z,98984.00
2023-08-12T17:15:29.112Z,98975.25
2023-08-12T17:17:56.409Z,98980.53
2023-08-12T17:20:24.713Z,98971.03
2023-08-12T17:22:52.208Z,98984.34
2023-08-12T17:25:19.663Z,98976.47
2023-08-12T17:27:47.237Z,98984.44
2023-08-12T17:30:17.211Z,98970.88
2023-08-12T17:32:44.780Z,98964.53
2023-08-12T17:35:12.383Z,98979.47
2023-08-12T17:37:40.973Z,98985.53
2023-08-12T17:40:11.806Z,98988.50
2023-08-12T17:42:39.439Z,98993.28
2023-08-12T17:45:08.169Z,98990.91
2023-08-12T17:48:05.791Z,99000.97
2023-08-12T17:50:33.688Z,98991.06
2023-08-12T17:53:01.079Z,99005.31
2023-08-12T17:55:29.013Z,99008.81
2023-08-12T17:57:57.443Z,99020.25
2023-08-12T18:00:25.102Z,99016.59
2023-08-12T18:02:52.364Z,99004.88
2023-08-12T18:05:19.995Z,99013.00
2023-08-12T18:07:47.571Z,99014.78
2023-08-12T18:10:15.113Z,99015.31
2023-08-12T18:12:42.300Z,99014.41
2023-08-12T18:15:10.458Z,99018.50
2023-08-12T18:17:38.592Z,99017.00
2023-08-12T18:20:07.363Z,99014.19
2023-08-12T18:22:34.667Z,99011.44
2023-08-12T18:25:02.209Z,99008.03
2023-08-12T18:27:30.561Z,99006.66
2023-08-12T18:29:58.220Z,99013.56
2023-08-12T18:32:27.744Z,99016.06
2023-08-12T18:34:57.650Z,99020.97
2023-08-12T18:37:25.206Z,99029.28
2023-08-12T18:39:52.942Z,99031.56
2023-08-12T18:42:20.513Z,99033.09
2023-08-12T18:44:48.471Z,99025.97
2023-08-12T18:47:17.611Z,99027.66
2023-08-12T18:49:46.075Z,99036.75
2023-08-12T18:52:14.763Z,99039.97
2023-08-12T18:54:42.479Z,99041.63
2023-08-12T18:57:09.803Z,99039.69
2023-08-12T18:59:38.072Z,99060.31
2023-08-12T19:02:05.585Z,99069.91
2023-08-12T19:04:33.352Z,99070.38
2023-08-12T19:07:01.031Z,99067.63
2023-08-12T19:09:28.521Z,99074.19
2023-08-12T19:11:55.924Z,99084.75
2023-08-12T19:14:23.260Z,99080.75
2023-08-12T19:16:51.146Z,99069.63
2023-08-12T19:19:18.592Z,99069.78
2023-08-12T19:21:45.911Z,99070.81
2023-08-12T19:24:13.752Z,99057.47
2023-08-12T19:26:41.331Z,99063.91
2023-08-12T19:29:08.762Z,99063.78
2023-08-12T19:31:36.663Z,99051.63
2023-08-12T19:34:04.707Z,99063.31
2023-08-12T19:36:32.403Z,99074.72
2023-08-12T19:39:00.110Z,99083.38
2023-08-12T19:41:30.098Z,99086.00
2023-08-12T19:43:59.840Z,99098.22
2023-08-12T19:46:27.736Z,99090.06
2023-08-12T19:48:55.661Z,99091.78
2023-08-12T19:51:23.143Z,99100.47
2023-08-12T19:53:50.473Z,99095.28
2023-08-12T19:56:18.449Z,99090.38
2023-08-12T19:58:46.298Z,99092.69
2023-08-12T20:01:13.950Z,99078.56
2023-08-12T20:03:41.550Z,99100.03
2023-08-12T20:06:12.470Z,99093.09
2023-08-12T20:08:40.081Z,99100.03
2023-08-12T20:11:07.364Z,99107.53
2023-08-12T20:13:34.676Z,99112.13
2023-08-12T20:16:01.922Z,99115.44
2023-08-12T20:18:29.483Z,99114.91
2023-08-12T20:20:56.797Z,99112.44
2023-08-12T20:23:24.200Z,99111.41
2023-08-12T20:25:51.822Z,99120.00
2023-08-12T20:28:19.217Z,99126.91
2023-08-12T20:30:47.659Z,99122.50
2023-08-12T20:33:15.107Z,99129.00
2023-08-12T20:35:42.376Z,99137.63
2023-08-12T20:38:09.899Z,99134.78
2023-08-12T20:40:37.704Z,99127.75
2023-08-12T20:43:05.708Z,99129.34
2023-08-12T20:45:33.145Z,99115.72
2023-08-12T20:48:00.512Z,99129.44
2023-08-12T20:50:27.897Z,99131.16
2023-08-12T20:52:55.166Z,99132.00
2023-08-12T20:55:22.970Z,99128.44
2023-08-12T20:57:50.593Z,99129.16
2023-08-12T21:00:18.333Z,99138.91
2023-08-12T21:02:46.518Z,99130.72
2023-08-12T21:05:15.142Z,99133.53
2023-08-12T21:07:42.872Z,99140.84
2023-08-12T21:10:12.145Z,99137.63
2023-08-12T21:12:39.765Z,99139.72
2023-08-12T21:15:07.872Z,99131.50
2023-08-12T21:17:35.643Z,99128.66
2023-08-12T21:20:03.521Z,99116.50
2023-08-12T21:22:30.785Z,99127.75
2023-08-12T21:24:57.959Z,99131.53
2023-08-12T21:27:26.895Z,99127.31
2023-08-12T21:29:54.600Z,99125.34
2023-08-12T21:32:22.453Z,99121.41
2023-08-12T21:34:50.094Z,99129.75
2023-08-12T21:37:17.727Z,99135.34
2023-08-12T21:39:45.877Z,99136.50
2023-08-12T21:42:13.722Z,99136.81
2023-08-12T21:44:41.829Z,99133.75
2023-08-12T21:47:10.331Z,99122.97
2023-08-12T21:49:37.518Z,99117.34
2023-08-12T21:52:04.917Z,99120.38
2023-08-12T21:54:32.571Z,99116.16
2023-08-12T21:57:00.265Z,99109.38
2023-08-12T21:59:27.815Z,99112.66
2023-08-12T22:01:55.507Z,99103.81
2023-08-12T22:04:22.903Z,99104.59
2023-08-12T22:06:50.402Z,99103.06
2023-08-12T22:09:17.647Z,99105.59
2023-08-12T22:11:45.138Z,99101.59
2023-08-12T22:14:12.655Z,99099.53
2023-08-12T22:16:40.436Z,99105.13
2023-08-12T22:19:08.153Z,99104.78
2023-08-12T22:21:35.323Z,99104.38
2023-08-12T22:24:02.630Z,99096.97
2023-08-12T22:26:30.165Z,99101.31
2023-08-12T22:28:58.070Z,99095.75
2023-08-12T22:31:25.814Z,99105.75
2023-08-12T22:33:53.144Z,99102.50
2023-08-12T22:36:20.997Z,99102.44
2023-08-12T22:38:48.796Z,99105.66
2023-08-12T22:41:16.161Z,99103.56
2023-08-12T22:43:43.910Z,99111.06
2023-08-12T22:46:11.652Z,99117.22
2023-08-12T22:48:38.936Z,99107.13
2023-08-12T22:51:06.148Z,99103.66
2023-08-12T22:53:33.410Z,99107.66
2023-08-12T22:56:00.991Z,99096.25
2023-08-12T22:58:28.238Z,99099.84
2023-08-12T23:00:56.159Z,99106.44
2023-08-12T23:03:23.893Z,99104.84
2023-08-12T23:05:51.573Z,99104.31
2023-08-12T23:08:18.942Z,99102.06
2023-08-12T23:10:47.118Z,99100.59
2023-08-12T23:13:14.516Z,99103.03
2023-08-12T23:15:44.568Z,99099.94
2023-08-12T23:18:12.561Z,99092.19
2023-08-12T23:20:40.062Z,99099.91
2023-08-12T23:23:07.694Z,99090.31
2023-08-12T23:25:35.353Z,99096.81
2023-08-12T23:28:02.604Z,99097.41
2023-08-12T23:30:30.481Z,99092.88
2023-08-12T23:32:57.791Z,99099.84
2023-08-12T23:35:25.057Z,99092.78
2023-08-12T23:37:52.609Z,99095.91
2023-08-12T23:40:20.683Z,99091.31
2023-08-12T23:42:48.076Z,99100.06
2023-08-12T23:45:15.665Z,99097.50
2023-08-12T23:47:43.084Z,99089.44
2023-08-12T23:50:12.618Z,99089.25
2023-08-12T23:52:40.075Z,99083.75
2023-08-12T23:55:08.315Z,99088.41
2023-08-12T23:57:36.669Z,99093.34
